Time;durP1;ratioP1;P1;durP2;ratioP2;P2;SDS_P1;SDS_P2;PMS_P1;PMS_P2;Temp;Humidity;BMP_temperature;BMP_pressure;BME280_temperature;BME280_humidity;BME280_pressure;Samples;Min_cycle;Max_cycle;Signal;HPM_P1;HPM_P2
2021/03/06 00:02:53;;;;;;;28.05;13.27;;;;;;;;;;6235382;28;20041;-70
2021/03/06 00:05:54;;;;;;;26.13;13.65;;;;;;;;;;6237092;28;20050;-71
2021/03/06 00:08:55;;;;;;;30.65;14.15;;;;;;;;;;6242947;28;20044;-70
2021/03/06 00:11:56;;;;;;;28.88;14.43;;;;;;;;;;6245798;28;20067;-75
2021/03/06 00:14:58;;;;;;;31.02;14.75;;;;;;;;;;6234140;28;20175;-70
2021/03/06 00:17:59;;;;;;;26.40;14.90;;;;;;;;;;6231924;28;20091;-73
2021/03/06 00:21:00;;;;;;;35.38;16.65;;;;;;;;;;6236506;28;20144;-71
2021/03/06 00:24:02;;;;;;;33.38;15.07;;;;;;;;;;6236556;28;20065;-73
2021/03/06 00:27:03;;;;;;;30.70;17.45;;;;;;;;;;6236491;28;20046;-71
2021/03/06 00:30:07;;;;;;;39.22;17.58;;;;;;;;;;6234148;28;20037;-71
2021/03/06 00:33:09;;;;;;;34.17;17.60;;;;;;;;;;6233583;28;21520;-72
2021/03/06 00:36:10;;;;;;;33.55;16.83;;;;;;;;;;6235340;28;20657;-72
2021/03/06 00:39:11;;;;;;;28.48;18.00;;;;;;;;;;6233151;28;20125;-71
2021/03/06 00:42:12;;;;;;;33.10;17.77;;;;;;;;;;6235180;28;20051;-71
2021/03/06 00:45:14;;;;;;;31.35;18.85;;;;;;;;;;6235556;28;20134;-72
2021/03/06 00:48:16;;;;;;;41.97;23.10;;;;;;;;;;6236720;28;20072;-73
2021/03/06 00:51:17;;;;;;;48.38;26.65;;;;;;;;;;6233461;28;20128;-69
2021/03/06 00:54:18;;;;;;;54.05;29.10;;;;;;;;;;6233128;28;20048;-72
2021/03/06 00:57:19;;;;;;;56.45;30.75;;;;;;;;;;6233321;28;20076;-71
2021/03/06 01:00:20;;;;;;;48.90;30.92;;;;;;;;;;6230992;28;20506;-70
2021/03/06 01:03:22;;;;;;;55.78;32.58;;;;;;;;;;6225853;28;20088;-71
2021/03/06 01:06:24;;;;;;;56.50;34.38;;;;;;;;;;6239318;28;20906;-71
2021/03/06 01:09:25;;;;;;;55.88;35.70;;;;;;;;;;6237530;28;20038;-69
2021/03/06 01:12:26;;;;;;;61.80;36.83;;;;;;;;;;6237879;28;20133;-72
2021/03/06 01:15:27;;;;;;;57.45;35.70;;;;;;;;;;6236734;28;20136;-68
2021/03/06 01:18:29;;;;;;;62.90;36.80;;;;;;;;;;6240852;28;20047;-69
2021/03/06 01:21:30;;;;;;;60.30;36.10;;;;;;;;;;6237200;28;20663;-68
2021/03/06 01:24:31;;;;;;;59.60;37.78;;;;;;;;;;6241427;28;20041;-69
2021/03/06 01:27:32;;;;;;;60.15;35.33;;;;;;;;;;6245873;28;20712;-73
2021/03/06 01:30:33;;;;;;;59.10;35.13;;;;;;;;;;6238487;28;20603;-71
2021/03/06 01:33:35;;;;;;;58.08;33.90;;;;;;;;;;6247790;28;20046;-70
2021/03/06 01:36:36;;;;;;;54.25;34.08;;;;;;;;;;6242662;28;20771;-69
2021/03/06 01:39:37;;;;;;;56.42;33.25;;;;;;;;;;6239269;28;20129;-72
2021/03/06 01:42:38;;;;;;;56.17;34.28;;;;;;;;;;6243419;28;20053;-73
2021/03/06 01:45:40;;;;;;;54.88;35.15;;;;;;;;;;6242273;28;20069;-70
2021/03/06 01:48:42;;;;;;;57.08;33.42;;;;;;;;;;6236275;28;20734;-70
2021/03/06 01:51:43;;;;;;;59.25;36.42;;;;;;;;;;6236783;28;20760;-69
2021/03/06 01:54:44;;;;;;;52.42;35.92;;;;;;;;;;6237613;28;20109;-70
2021/03/06 01:57:45;;;;;;;58.10;36.45;;;;;;;;;;6237631;28;20064;-69
2021/03/06 02:00:47;;;;;;;62.40;36.63;;;;;;;;;;6235685;28;20137;-73
2021/03/06 02:03:49;;;;;;;62.17;36.85;;;;;;;;;;6230572;28;20060;-69
2021/03/06 02:06:50;;;;;;;69.72;38.40;;;;;;;;;;6238681;28;20584;-71
2021/03/06 02:09:51;;;;;;;69.00;41.13;;;;;;;;;;6248994;28;20103;-70
2021/03/06 02:12:59;;;;;;;68.85;41.22;;;;;;;;;;6243421;28;20131;-73
2021/03/06 02:16:10;;;;;;;72.78;42.15;;;;;;;;;;6226635;28;20049;-70
2021/03/06 02:19:40;;;;;;;76.20;43.33;;;;;;;;;;6235667;28;20049;-72
2021/03/06 02:22:54;;;;;;;64.40;41.25;;;;;;;;;;6241935;28;20946;-70
2021/03/06 02:26:30;;;;;;;75.85;43.15;;;;;;;;;;6237506;28;20456;-74
2021/03/06 02:29:39;;;;;;;73.18;43.65;;;;;;;;;;6240387;28;20081;-69
2021/03/06 02:32:43;;;;;;;73.60;43.30;;;;;;;;;;6239106;28;20037;-71
2021/03/06 02:35:44;;;;;;;73.47;43.42;;;;;;;;;;6239528;28;20377;-73
2021/03/06 02:38:47;;;;;;;70.88;44.25;;;;;;;;;;6238932;28;20053;-71
2021/03/06 02:41:48;;;;;;;73.63;45.13;;;;;;;;;;6231896;28;20064;-69
2021/03/06 02:44:51;;;;;;;77.38;48.33;;;;;;;;;;6232892;28;20136;-69
2021/03/06 02:47:52;;;;;;;73.82;48.47;;;;;;;;;;6242273;28;20090;-70
2021/03/06 02:50:54;;;;;;;80.07;48.60;;;;;;;;;;6241136;28;20044;-69
2021/03/06 02:53:55;;;;;;;85.57;50.28;;;;;;;;;;6242499;28;20053;-69
2021/03/06 02:56:56;;;;;;;80.78;49.13;;;;;;;;;;6237708;28;20164;-69
2021/03/06 03:00:06;;;;;;;79.82;47.78;;;;;;;;;;6239491;28;20041;-70
2021/03/06 03:03:16;;;;;;;73.70;46.17;;;;;;;;;;6241737;28;20053;-68
2021/03/06 03:06:23;;;;;;;76.85;47.03;;;;;;;;;;6236503;28;20048;-72
2021/03/06 03:09:25;;;;;;;79.43;47.17;;;;;;;;;;6237022;28;20049;-73
2021/03/06 03:12:30;;;;;;;79.70;48.05;;;;;;;;;;6241826;28;20167;-69
2021/03/06 03:15:37;;;;;;;82.40;47.80;;;;;;;;;;6239251;28;20171;-69
2021/03/06 03:18:44;;;;;;;81.65;51.30;;;;;;;;;;6240077;28;20136;-71
2021/03/06 03:21:48;;;;;;;76.53;46.30;;;;;;;;;;6236158;28;20465;-71
2021/03/06 03:24:50;;;;;;;75.45;45.40;;;;;;;;;;6237671;28;20103;-69
2021/03/06 03:27:51;;;;;;;68.65;42.72;;;;;;;;;;6238322;28;20095;-69
2021/03/06 03:30:56;;;;;;;72.68;45.08;;;;;;;;;;6241962;28;20045;-73
2021/03/06 03:33:57;;;;;;;67.10;41.35;;;;;;;;;;6236363;28;20056;-72
2021/03/06 03:36:59;;;;;;;70.00;42.15;;;;;;;;;;6241208;28;20127;-69
2021/03/06 03:40:00;;;;;;;66.75;38.30;;;;;;;;;;6243028;28;20395;-69
2021/03/06 03:43:02;;;;;;;68.25;40.70;;;;;;;;;;6239174;28;20041;-68
2021/03/06 03:46:05;;;;;;;71.55;41.03;;;;;;;;;;6248348;28;20625;-69
2021/03/06 03:49:06;;;;;;;71.32;43.85;;;;;;;;;;6239962;28;20046;-72
2021/03/06 03:52:07;;;;;;;66.85;38.33;;;;;;;;;;6234926;28;20133;-68
2021/03/06 03:55:10;;;;;;;64.05;39.78;;;;;;;;;;6239764;28;20116;-70
2021/03/06 03:58:12;;;;;;;52.95;31.92;;;;;;;;;;6250558;28;20741;-70
2021/03/06 04:01:14;;;;;;;53.28;30.95;;;;;;;;;;6237375;28;20041;-67
2021/03/06 04:04:29;;;;;;;43.42;28.58;;;;;;;;;;6225179;28;20113;-71
2021/03/06 04:07:30;;;;;;;46.85;26.92;;;;;;;;;;6230551;28;20041;-67
2021/03/06 04:10:31;;;;;;;40.80;25.25;;;;;;;;;;6235586;28;20072;-68
2021/03/06 04:13:32;;;;;;;44.45;27.75;;;;;;;;;;6234326;28;20049;-68
2021/03/06 04:16:34;;;;;;;41.17;26.55;;;;;;;;;;6239643;28;20046;-70
2021/03/06 04:19:35;;;;;;;37.03;24.38;;;;;;;;;;6239151;28;20069;-71
2021/03/06 04:22:36;;;;;;;41.20;23.80;;;;;;;;;;6233998;28;20100;-70
2021/03/06 04:25:37;;;;;;;39.00;24.58;;;;;;;;;;6247297;28;20111;-67
2021/03/06 04:28:38;;;;;;;36.67;22.88;;;;;;;;;;6239946;28;20095;-69
2021/03/06 04:31:40;;;;;;;39.10;24.35;;;;;;;;;;6240606;28;20124;-70
2021/03/06 04:34:41;;;;;;;37.15;22.77;;;;;;;;;;6238960;28;20136;-68
2021/03/06 04:37:42;;;;;;;33.97;21.67;;;;;;;;;;6234746;28;20052;-68
2021/03/06 04:40:43;;;;;;;26.02;17.05;;;;;;;;;;6232231;28;20049;-72
2021/03/06 04:43:44;;;;;;;21.58;13.82;;;;;;;;;;6240552;28;20045;-68
2021/03/06 04:46:46;;;;;;;17.98;11.65;;;;;;;;;;6242006;28;20537;-68
2021/03/06 04:49:47;;;;;;;15.13;10.30;;;;;;;;;;6232134;28;20053;-70
2021/03/06 04:52:48;;;;;;;11.88;7.43;;;;;;;;;;6239030;28;20060;-69
2021/03/06 04:55:49;;;;;;;10.85;6.28;;;;;;;;;;6239877;28;20041;-67
2021/03/06 04:58:50;;;;;;;8.90;5.25;;;;;;;;;;6239945;28;20092;-67
2021/03/06 05:01:52;;;;;;;9.25;5.90;;;;;;;;;;6239513;28;20041;-67
2021/03/06 05:04:53;;;;;;;7.97;5.40;;;;;;;;;;6243373;28;20180;-70
2021/03/06 05:07:54;;;;;;;7.95;4.95;;;;;;;;;;6241508;28;20073;-68
2021/03/06 05:10:55;;;;;;;10.05;4.80;;;;;;;;;;6235713;28;20045;-68
2021/03/06 05:13:56;;;;;;;8.43;4.50;;;;;;;;;;6237032;28;20136;-70
2021/03/06 05:16:58;;;;;;;8.70;4.85;;;;;;;;;;6240662;28;20049;-72
2021/03/06 05:19:59;;;;;;;5.22;3.92;;;;;;;;;;6238082;28;20045;-70
2021/03/06 05:23:00;;;;;;;7.50;4.38;;;;;;;;;;6241263;28;20094;-69
2021/03/06 05:26:01;;;;;;;8.07;4.60;;;;;;;;;;6233427;28;20052;-70
2021/03/06 05:29:02;;;;;;;7.03;4.43;;;;;;;;;;6239279;28;20132;-69
2021/03/06 05:32:06;;;;;;;5.10;3.88;;;;;;;;;;6237234;28;20042;-69
2021/03/06 05:35:07;;;;;;;9.25;4.25;;;;;;;;;;6243406;28;20494;-69
2021/03/06 05:38:08;;;;;;;4.78;3.85;;;;;;;;;;6241204;28;20060;-71
2021/03/06 05:41:09;;;;;;;5.10;3.97;;;;;;;;;;6237976;28;20049;-70
2021/03/06 05:44:12;;;;;;;6.97;3.80;;;;;;;;;;6235592;28;20128;-72
2021/03/06 05:47:14;;;;;;;8.35;3.60;;;;;;;;;;6236553;28;20045;-70
2021/03/06 05:50:15;;;;;;;8.27;4.00;;;;;;;;;;6235171;28;20091;-72
2021/03/06 05:53:16;;;;;;;8.10;4.20;;;;;;;;;;6235974;28;20072;-70
2021/03/06 05:56:18;;;;;;;6.32;4.13;;;;;;;;;;6235229;28;20065;-73
2021/03/06 05:59:22;;;;;;;9.25;4.22;;;;;;;;;;6237227;28;20049;-69
2021/03/06 06:02:24;;;;;;;7.03;3.70;;;;;;;;;;6232884;28;20381;-68
2021/03/06 06:05:25;;;;;;;7.07;3.70;;;;;;;;;;6253762;28;20405;-69
2021/03/06 06:08:27;;;;;;;4.90;3.33;;;;;;;;;;6259060;28;20130;-72
2021/03/06 06:11:29;;;;;;;7.43;3.65;;;;;;;;;;6266456;28;20045;-69
2021/03/06 06:14:30;;;;;;;6.75;3.22;;;;;;;;;;6270437;28;20045;-68
2021/03/06 06:17:32;;;;;;;7.75;3.40;;;;;;;;;;6263001;28;20136;-70
2021/03/06 06:20:37;;;;;;;5.57;3.20;;;;;;;;;;6261216;28;20044;-68
2021/03/06 06:23:38;;;;;;;7.15;3.10;;;;;;;;;;6260512;28;20064;-68
2021/03/06 06:26:40;;;;;;;7.68;3.00;;;;;;;;;;6261115;28;20379;-72
2021/03/06 06:29:42;;;;;;;5.95;2.95;;;;;;;;;;6263071;28;20125;-71
2021/03/06 06:32:45;;;;;;;3.65;2.53;;;;;;;;;;6253350;28;20045;-74
2021/03/06 06:35:46;;;;;;;7.43;2.65;;;;;;;;;;6257577;28;20045;-71
2021/03/06 06:38:47;;;;;;;4.70;3.00;;;;;;;;;;6264268;28;20076;-70
2021/03/06 06:41:50;;;;;;;3.88;2.33;;;;;;;;;;6260105;28;20053;-71
2021/03/06 06:44:54;;;;;;;3.00;2.05;;;;;;;;;;6261010;28;20128;-70
2021/03/06 06:47:56;;;;;;;7.38;2.35;;;;;;;;;;6263213;28;20512;-72
2021/03/06 06:51:07;;;;;;;2.42;2.10;;;;;;;;;;6265537;28;20532;-72
2021/03/06 06:54:09;;;;;;;7.72;3.45;;;;;;;;;;6266536;28;20064;-72
2021/03/06 06:57:12;;;;;;;4.28;2.38;;;;;;;;;;6262225;28;20048;-69
2021/03/06 07:00:14;;;;;;;3.70;2.35;;;;;;;;;;6270873;28;20476;-70
2021/03/06 07:03:21;;;;;;;5.13;2.25;;;;;;;;;;6262577;28;20132;-73
2021/03/06 07:06:22;;;;;;;5.90;2.60;;;;;;;;;;6236153;28;20045;-72
2021/03/06 07:09:23;;;;;;;4.30;2.38;;;;;;;;;;6237206;28;20046;-75
2021/03/06 07:12:25;;;;;;;4.38;2.67;;;;;;;;;;6234893;28;20140;-69
2021/03/06 07:15:28;;;;;;;7.88;2.40;;;;;;;;;;6235119;28;20089;-70
2021/03/06 07:18:29;;;;;;;8.55;2.47;;;;;;;;;;6236799;28;20061;-71
2021/03/06 07:21:46;;;;;;;7.15;3.35;;;;;;;;;;6238329;28;20048;-74
2021/03/06 07:24:47;;;;;;;4.63;2.50;;;;;;;;;;6236699;28;20037;-74
2021/03/06 07:27:48;;;;;;;5.05;2.70;;;;;;;;;;6236352;28;20057;-72
2021/03/06 07:30:50;;;;;;;6.75;2.40;;;;;;;;;;6235449;28;20140;-69
2021/03/06 07:33:54;;;;;;;8.02;2.55;;;;;;;;;;6236273;28;20049;-70
2021/03/06 07:36:56;;;;;;;;;;;;;;;;;;6239277;28;20120;-69
2021/03/06 07:39:59;;;;;;;4.50;3.15;;;;;;;;;;6232913;28;19971;-69
2021/03/06 07:43:02;;;;;;;5.32;2.28;;;;;;;;;;6241836;28;20144;-69
2021/03/06 07:46:04;;;;;;;4.27;2.23;;;;;;;;;;6250132;28;20573;-69
2021/03/06 07:49:12;;;;;;;4.88;2.13;;;;;;;;;;6241383;28;20041;-69
2021/03/06 07:52:13;;;;;;;7.95;2.10;;;;;;;;;;6238978;28;20053;-68
2021/03/06 07:55:14;;;;;;;6.68;2.50;;;;;;;;;;6239568;28;20603;-69
2021/03/06 07:58:17;;;;;;;7.22;2.63;;;;;;;;;;6236025;28;20052;-69
2021/03/06 08:01:25;;;;;;;6.88;1.90;;;;;;;;;;6241421;28;20100;-68
2021/03/06 08:04:35;;;;;;;4.90;2.13;;;;;;;;;;6247770;28;20091;-69
2021/03/06 08:07:41;;;;;;;5.43;2.10;;;;;;;;;;6263414;28;20049;-69
2021/03/06 08:11:03;;;;;;;11.35;2.10;;;;;;;;;;6257728;28;20103;-69
2021/03/06 08:14:06;;;;;;;5.18;2.13;;;;;;;;;;6257941;28;20056;-68
2021/03/06 08:17:36;;;;;;;5.15;2.35;;;;;;;;;;6259361;28;20069;-70
2021/03/06 08:20:38;;;;;;;5.32;2.50;;;;;;;;;;6248063;28;20371;-69
2021/03/06 08:23:39;;;;;;;6.93;3.40;;;;;;;;;;6259861;28;20523;-75
2021/03/06 08:26:41;;;;;;;5.35;2.38;;;;;;;;;;6260475;28;20676;-68
2021/03/06 08:29:43;;;;;;;10.07;2.80;;;;;;;;;;6259828;28;20044;-69
2021/03/06 08:32:44;;;;;;;6.28;2.47;;;;;;;;;;6260115;28;20049;-71
2021/03/06 08:35:46;;;;;;;9.57;2.90;;;;;;;;;;6263783;28;20047;-70
2021/03/06 08:38:48;;;;;;;5.85;2.15;;;;;;;;;;6262738;28;20053;-71
2021/03/06 08:41:49;;;;;;;8.48;2.30;;;;;;;;;;6258669;28;20557;-70
2021/03/06 08:44:50;;;;;;;4.55;2.10;;;;;;;;;;6261525;28;20132;-72
2021/03/06 08:47:57;;;;;;;8.98;3.63;;;;;;;;;;6259741;28;20060;-70
2021/03/06 08:50:59;;;;;;;5.50;2.25;;;;;;;;;;6260131;28;20041;-70
2021/03/06 08:54:00;;;;;;;7.07;2.83;;;;;;;;;;6257776;28;21422;-70
2021/03/06 08:57:01;;;;;;;8.32;2.67;;;;;;;;;;6253375;28;20699;-70
2021/03/06 09:00:07;;;;;;;10.68;2.75;;;;;;;;;;6258750;28;20128;-72
2021/03/06 09:03:10;;;;;;;6.72;3.10;;;;;;;;;;6262327;28;20059;-68
2021/03/06 09:06:12;;;;;;;4.38;2.40;;;;;;;;;;6235410;28;20136;-73
2021/03/06 09:09:13;;;;;;;6.15;3.80;;;;;;;;;;6231397;28;20053;-68
2021/03/06 09:12:14;;;;;;;6.95;3.13;;;;;;;;;;6236923;28;20156;-70
2021/03/06 09:15:37;;;;;;;4.70;2.75;;;;;;;;;;6237866;28;20064;-75
2021/03/06 09:18:39;;;;;;;5.35;2.50;;;;;;;;;;6237740;28;20098;-71
2021/03/06 09:21:41;;;;;;;5.82;3.03;;;;;;;;;;6237445;28;20052;-70
2021/03/06 09:24:46;;;;;;;6.28;3.22;;;;;;;;;;6234943;28;20124;-68
2021/03/06 09:27:48;;;;;;;6.50;3.75;;;;;;;;;;6235548;28;20121;-68
2021/03/06 09:30:49;;;;;;;7.60;3.90;;;;;;;;;;6243760;28;20042;-70
2021/03/06 09:33:50;;;;;;;9.35;3.40;;;;;;;;;;6242429;28;20492;-71
2021/03/06 09:36:52;;;;;;;11.68;2.97;;;;;;;;;;6245379;28;20099;-70
2021/03/06 09:39:53;;;;;;;12.25;3.22;;;;;;;;;;6240700;28;20052;-69
2021/03/06 09:42:54;;;;;;;7.60;3.10;;;;;;;;;;6246158;28;20128;-69
2021/03/06 09:45:56;;;;;;;6.55;3.20;;;;;;;;;;6247623;28;20053;-68
2021/03/06 09:48:59;;;;;;;8.95;3.90;;;;;;;;;;6252396;28;20080;-69
2021/03/06 09:52:01;;;;;;;11.63;5.05;;;;;;;;;;6243700;28;20484;-68
2021/03/06 09:55:03;;;;;;;9.32;3.78;;;;;;;;;;6252577;28;20045;-71
2021/03/06 09:58:18;;;;;;;6.47;3.55;;;;;;;;;;6244789;28;20061;-69
2021/03/06 10:01:20;;;;;;;6.13;3.80;;;;;;;;;;6247619;28;20056;-69
2021/03/06 10:04:23;;;;;;;5.45;3.30;;;;;;;;;;6239937;28;20072;-73
2021/03/06 10:07:28;;;;;;;6.13;3.83;;;;;;;;;;6241902;28;20423;-70
2021/03/06 10:10:29;;;;;;;7.60;4.88;;;;;;;;;;6241163;28;20041;-71
2021/03/06 10:13:30;;;;;;;6.93;2.90;;;;;;;;;;6238981;28;20059;-70
2021/03/06 10:16:42;;;;;;;7.93;3.83;;;;;;;;;;6238294;28;20160;-69
2021/03/06 10:19:48;;;;;;;7.65;4.03;;;;;;;;;;6235575;28;20381;-68
2021/03/06 10:22:50;;;;;;;6.75;3.45;;;;;;;;;;6235194;28;20140;-70
2021/03/06 10:25:51;;;;;;;6.53;3.63;;;;;;;;;;6235145;28;20133;-69
2021/03/06 10:28:55;;;;;;;6.30;3.50;;;;;;;;;;6240831;28;20049;-70
2021/03/06 10:31:57;;;;;;;10.80;3.53;;;;;;;;;;6243451;28;20128;-70
2021/03/06 10:34:58;;;;;;;5.05;3.33;;;;;;;;;;6242456;28;20048;-69
2021/03/06 10:38:00;;;;;;;7.30;4.28;;;;;;;;;;6241226;28;20123;-75
2021/03/06 10:41:03;;;;;;;5.22;3.72;;;;;;;;;;6234291;28;20078;-71
2021/03/06 10:44:05;;;;;;;10.57;5.45;;;;;;;;;;6237585;28;20087;-70
2021/03/06 10:47:06;;;;;;;7.85;4.40;;;;;;;;;;6250401;28;20073;-69
2021/03/06 10:50:20;;;;;;;6.68;4.68;;;;;;;;;;6247116;28;20076;-71
2021/03/06 10:53:23;;;;;;;7.53;4.10;;;;;;;;;;6247474;28;20141;-72
2021/03/06 10:56:24;;;;;;;6.38;4.55;;;;;;;;;;6238928;28;20491;-70
2021/03/06 10:59:33;;;;;;;4.50;3.28;;;;;;;;;;6237174;28;20719;-68
2021/03/06 11:02:34;;;;;;;9.45;4.35;;;;;;;;;;6237758;28;20144;-70
2021/03/06 11:05:36;;;;;;;10.55;5.07;;;;;;;;;;6236551;28;20516;-69
2021/03/06 11:08:38;;;;;;;13.10;6.15;;;;;;;;;;6237042;28;20160;-71
2021/03/06 11:11:39;;;;;;;6.90;4.75;;;;;;;;;;6234605;28;20106;-70
2021/03/06 11:14:40;;;;;;;9.77;5.80;;;;;;;;;;6245545;28;20129;-70
2021/03/06 11:17:43;;;;;;;7.15;3.65;;;;;;;;;;6239967;28;20053;-69
2021/03/06 11:20:44;;;;;;;6.60;3.78;;;;;;;;;;6208256;28;20072;-71
2021/03/06 11:23:46;;;;;;;9.70;5.18;;;;;;;;;;6234902;28;20037;-72
2021/03/06 11:26:48;;;;;;;10.00;6.57;;;;;;;;;;6238837;28;20140;-71
2021/03/06 11:29:49;;;;;;;12.70;7.05;;;;;;;;;;6237902;28;20160;-69
2021/03/06 11:32:50;;;;;;;8.80;5.95;;;;;;;;;;6234273;28;20099;-71
2021/03/06 11:35:51;;;;;;;15.50;9.70;;;;;;;;;;6237610;28;20048;-70
2021/03/06 11:38:53;;;;;;;14.15;9.65;;;;;;;;;;6231447;28;20046;-71
2021/03/06 11:41:54;;;;;;;8.70;6.97;;;;;;;;;;6232770;28;20132;-70
2021/03/06 11:44:55;;;;;;;8.13;4.18;;;;;;;;;;6204551;28;20045;-71
2021/03/06 11:47:56;;;;;;;8.48;3.88;;;;;;;;;;6236062;28;20478;-71
2021/03/06 11:50:57;;;;;;;5.78;3.60;;;;;;;;;;6235554;28;20128;-73
2021/03/06 11:53:59;;;;;;;4.45;3.40;;;;;;;;;;6232714;28;20064;-71
2021/03/06 11:57:00;;;;;;;7.97;3.85;;;;;;;;;;6232762;28;20121;-70
2021/03/06 12:00:02;;;;;;;7.25;4.35;;;;;;;;;;6237920;28;20073;-70
2021/03/06 12:03:03;;;;;;;6.65;3.50;;;;;;;;;;6239993;28;20600;-69
2021/03/06 12:06:05;;;;;;;6.32;4.65;;;;;;;;;;6239793;28;20488;-69
2021/03/06 12:09:07;;;;;;;7.32;4.60;;;;;;;;;;6237447;28;20045;-71
2021/03/06 12:12:08;;;;;;;18.83;12.57;;;;;;;;;;6237033;28;20192;-70
2021/03/06 12:15:11;;;;;;;14.77;9.55;;;;;;;;;;6239034;28;20056;-70
2021/03/06 12:18:12;;;;;;;9.68;6.32;;;;;;;;;;6242561;28;20082;-70
2021/03/06 12:21:13;;;;;;;8.40;4.97;;;;;;;;;;6238903;28;20083;-70
2021/03/06 12:24:15;;;;;;;10.52;6.32;;;;;;;;;;6238376;28;20455;-71
2021/03/06 12:27:16;;;;;;;8.25;5.40;;;;;;;;;;6239955;28;20058;-72
2021/03/06 12:30:18;;;;;;;8.98;5.70;;;;;;;;;;6239990;28;20120;-72
2021/03/06 12:33:19;;;;;;;17.05;9.93;;;;;;;;;;6243012;28;20088;-74
2021/03/06 12:36:20;;;;;;;18.63;10.90;;;;;;;;;;6239369;28;20049;-72
2021/03/06 12:39:22;;;;;;;15.18;10.18;;;;;;;;;;6232038;28;20136;-71
2021/03/06 12:42:23;;;;;;;12.52;6.78;;;;;;;;;;6238462;28;20462;-71
2021/03/06 12:45:24;;;;;;;6.13;4.10;;;;;;;;;;6237754;28;20168;-71
2021/03/06 12:48:25;;;;;;;6.43;4.43;;;;;;;;;;6238836;28;20505;-71
2021/03/06 12:51:27;;;;;;;6.60;3.75;;;;;;;;;;6248379;28;20071;-71
2021/03/06 12:54:29;;;;;;;8.90;5.13;;;;;;;;;;6241974;28;20060;-71
2021/03/06 12:57:30;;;;;;;7.18;4.88;;;;;;;;;;6241528;28;20033;-72
2021/03/06 13:00:31;;;;;;;7.55;4.15;;;;;;;;;;6241327;28;20450;-71
2021/03/06 13:03:33;;;;;;;6.85;4.38;;;;;;;;;;6237078;28;20053;-72
2021/03/06 13:06:34;;;;;;;8.13;4.63;;;;;;;;;;6241345;28;20124;-72
2021/03/06 13:09:36;;;;;;;8.30;4.15;;;;;;;;;;6240318;28;20168;-72
2021/03/06 13:12:37;;;;;;;9.48;4.22;;;;;;;;;;6243112;28;20049;-71
2021/03/06 13:15:39;;;;;;;5.97;4.60;;;;;;;;;;6240128;28;20044;-72
2021/03/06 13:18:40;;;;;;;6.13;3.90;;;;;;;;;;6241177;28;20103;-72
2021/03/06 13:21:41;;;;;;;6.75;4.40;;;;;;;;;;6243184;28;20094;-72
2021/03/06 13:24:43;;;;;;;9.73;5.60;;;;;;;;;;6242812;28;20087;-72
2021/03/06 13:27:44;;;;;;;8.02;4.65;;;;;;;;;;6240981;28;20087;-73
2021/03/06 13:30:45;;;;;;;9.13;5.38;;;;;;;;;;6235009;28;20488;-71
2021/03/06 13:33:46;;;;;;;8.90;4.50;;;;;;;;;;6233609;28;20073;-72
2021/03/06 13:36:47;;;;;;;5.90;4.35;;;;;;;;;;6237924;28;20053;-74
2021/03/06 13:39:49;;;;;;;7.00;4.60;;;;;;;;;;6245867;28;20060;-71
2021/03/06 13:42:50;;;;;;;7.28;5.00;;;;;;;;;;6244129;28;20081;-72
2021/03/06 13:45:51;;;;;;;10.85;4.82;;;;;;;;;;6236277;28;20056;-73
2021/03/06 13:48:52;;;;;;;7.30;5.00;;;;;;;;;;6238193;28;20045;-72
2021/03/06 13:51:53;;;;;;;5.75;4.93;;;;;;;;;;6232713;28;20040;-72
2021/03/06 13:54:55;;;;;;;7.63;4.80;;;;;;;;;;6253320;28;20080;-73
2021/03/06 13:57:56;;;;;;;8.23;4.40;;;;;;;;;;6239268;28;20197;-72
2021/03/06 14:00:58;;;;;;;9.52;5.10;;;;;;;;;;6248894;28;20041;-71
2021/03/06 14:03:59;;;;;;;7.20;4.65;;;;;;;;;;6255383;28;20438;-75
2021/03/06 14:07:00;;;;;;;7.35;5.07;;;;;;;;;;6238658;28;20057;-71
2021/03/06 14:10:03;;;;;;;9.18;5.18;;;;;;;;;;6244883;28;20491;-71
2021/03/06 14:13:04;;;;;;;7.03;4.97;;;;;;;;;;6243171;28;20791;-71
2021/03/06 14:16:06;;;;;;;7.32;4.60;;;;;;;;;;6237636;28;20602;-71
2021/03/06 14:19:07;;;;;;;6.90;4.97;;;;;;;;;;6239585;28;20738;-71
2021/03/06 14:22:08;;;;;;;7.32;5.18;;;;;;;;;;6238346;28;20073;-71
2021/03/06 14:25:12;;;;;;;9.95;5.53;;;;;;;;;;6244663;28;20042;-71
2021/03/06 14:28:13;;;;;;;7.97;4.88;;;;;;;;;;6246118;28;20128;-70
2021/03/06 14:31:14;;;;;;;8.00;4.68;;;;;;;;;;6248262;28;20061;-70
2021/03/06 14:34:15;;;;;;;6.65;5.00;;;;;;;;;;6243047;28;20990;-71
2021/03/06 14:37:16;;;;;;;7.55;4.85;;;;;;;;;;6246107;28;20071;-70
2021/03/06 14:40:18;;;;;;;7.82;5.68;;;;;;;;;;6239865;28;20108;-71
2021/03/06 14:43:20;;;;;;;11.50;6.00;;;;;;;;;;6255280;28;20445;-73
2021/03/06 14:46:21;;;;;;;8.90;5.22;;;;;;;;;;6245629;28;20060;-72
2021/03/06 14:49:22;;;;;;;8.02;5.00;;;;;;;;;;6235547;28;20061;-72
2021/03/06 14:52:23;;;;;;;8.65;5.43;;;;;;;;;;6246322;28;20389;-71
2021/03/06 14:55:25;;;;;;;9.75;5.72;;;;;;;;;;6242066;28;20067;-77
2021/03/06 14:58:26;;;;;;;12.73;7.15;;;;;;;;;;6240143;28;20131;-75
2021/03/06 15:01:27;;;;;;;16.85;8.75;;;;;;;;;;6244344;28;20140;-71
2021/03/06 15:04:28;;;;;;;18.52;10.65;;;;;;;;;;6243457;28;20065;-71
2021/03/06 15:07:29;;;;;;;13.57;9.00;;;;;;;;;;6244239;28;20132;-70
2021/03/06 15:10:35;;;;;;;17.27;10.18;;;;;;;;;;6238512;28;20112;-71
2021/03/06 15:13:36;;;;;;;22.42;11.60;;;;;;;;;;6240301;28;20183;-71
2021/03/06 15:16:37;;;;;;;15.90;8.90;;;;;;;;;;6241737;28;20179;-73
2021/03/06 15:19:38;;;;;;;11.07;7.25;;;;;;;;;;6242672;28;20088;-71
2021/03/06 15:22:40;;;;;;;8.35;6.35;;;;;;;;;;6240531;28;20045;-70
2021/03/06 15:25:42;;;;;;;9.98;6.10;;;;;;;;;;6239099;28;20168;-72
2021/03/06 15:28:44;;;;;;;8.30;5.75;;;;;;;;;;6242109;28;20120;-71
2021/03/06 15:31:45;;;;;;;8.40;5.60;;;;;;;;;;6238666;28;20048;-71
2021/03/06 15:34:46;;;;;;;10.52;5.78;;;;;;;;;;6235306;28;20138;-76
2021/03/06 15:37:48;;;;;;;10.10;7.00;;;;;;;;;;6236110;28;20072;-74
2021/03/06 15:40:50;;;;;;;11.40;6.63;;;;;;;;;;6236283;28;20128;-71
2021/03/06 15:43:51;;;;;;;9.27;5.32;;;;;;;;;;6234253;28;20136;-71
2021/03/06 15:46:52;;;;;;;10.57;6.20;;;;;;;;;;6237399;28;20072;-70
2021/03/06 15:49:53;;;;;;;8.73;6.07;;;;;;;;;;6236434;28;20125;-71
2021/03/06 15:52:55;;;;;;;14.20;6.47;;;;;;;;;;6237851;28;20128;-70
2021/03/06 15:55:56;;;;;;;9.15;6.00;;;;;;;;;;6239132;28;20053;-71
2021/03/06 15:58:58;;;;;;;10.35;5.95;;;;;;;;;;6240004;28;20160;-72
2021/03/06 16:01:59;;;;;;;9.43;6.40;;;;;;;;;;6239699;28;20052;-76
2021/03/06 16:05:00;;;;;;;12.75;6.25;;;;;;;;;;6253688;28;20143;-73
2021/03/06 16:08:01;;;;;;;13.20;6.10;;;;;;;;;;6261540;28;20060;-71
2021/03/06 16:11:03;;;;;;;10.18;6.60;;;;;;;;;;6257493;28;20079;-71
2021/03/06 16:14:04;;;;;;;11.23;5.78;;;;;;;;;;6258019;28;20099;-71
2021/03/06 16:17:05;;;;;;;10.25;5.43;;;;;;;;;;6264401;28;20049;-74
2021/03/06 16:20:08;;;;;;;6.72;5.93;;;;;;;;;;6263414;28;20059;-71
2021/03/06 16:23:09;;;;;;;8.23;5.88;;;;;;;;;;6265352;28;20053;-71
2021/03/06 16:26:11;;;;;;;8.02;6.20;;;;;;;;;;6264480;28;20090;-73
2021/03/06 16:29:12;;;;;;;8.75;5.80;;;;;;;;;;6264078;28;20045;-71
2021/03/06 16:32:13;;;;;;;11.00;6.10;;;;;;;;;;6266201;28;20065;-74
2021/03/06 16:35:14;;;;;;;8.50;6.00;;;;;;;;;;6265244;28;20087;-72
2021/03/06 16:38:17;;;;;;;8.93;6.20;;;;;;;;;;6268394;28;20131;-71
2021/03/06 16:41:19;;;;;;;8.00;6.13;;;;;;;;;;6269024;28;20132;-70
2021/03/06 16:44:20;;;;;;;8.55;5.57;;;;;;;;;;6266575;28;20072;-70
2021/03/06 16:47:21;;;;;;;8.88;5.95;;;;;;;;;;6271963;28;20208;-71
2021/03/06 16:50:22;;;;;;;7.57;5.60;;;;;;;;;;6273980;28;20048;-74
2021/03/06 16:53:23;;;;;;;14.77;6.45;;;;;;;;;;6281390;28;20051;-71
2021/03/06 16:56:25;;;;;;;9.98;5.90;;;;;;;;;;6276441;28;20072;-71
2021/03/06 16:59:26;;;;;;;11.25;5.78;;;;;;;;;;6275680;28;20069;-69
2021/03/06 17:02:27;;;;;;;12.10;6.28;;;;;;;;;;6272245;28;20045;-74
2021/03/06 17:05:29;;;;;;;8.02;5.68;;;;;;;;;;6257546;28;20065;-73
2021/03/06 17:08:32;;;;;;;7.72;6.03;;;;;;;;;;6242746;28;20077;-71
2021/03/06 17:11:34;;;;;;;9.27;5.75;;;;;;;;;;6245802;28;20052;-71
2021/03/06 17:14:36;;;;;;;8.68;6.43;;;;;;;;;;6247510;28;20164;-71
2021/03/06 17:17:37;;;;;;;10.63;6.03;;;;;;;;;;6252367;28;20128;-73
2021/03/06 17:20:38;;;;;;;11.50;6.57;;;;;;;;;;6247587;28;20151;-75
2021/03/06 17:23:39;;;;;;;11.43;6.75;;;;;;;;;;6249754;28;20198;-73
2021/03/06 17:26:41;;;;;;;9.07;5.53;;;;;;;;;;6250351;28;20050;-71
2021/03/06 17:29:42;;;;;;;8.93;5.65;;;;;;;;;;6250778;28;20073;-71
2021/03/06 17:32:44;;;;;;;9.45;5.45;;;;;;;;;;6244623;28;20053;-72
2021/03/06 17:35:46;;;;;;;9.85;5.85;;;;;;;;;;6250170;28;20145;-73
2021/03/06 17:38:47;;;;;;;8.93;5.55;;;;;;;;;;6245163;28;20144;-71
2021/03/06 17:41:49;;;;;;;8.10;5.55;;;;;;;;;;6247163;28;20128;-74
2021/03/06 17:44:50;;;;;;;8.15;5.65;;;;;;;;;;6249151;28;20061;-76
2021/03/06 17:47:51;;;;;;;9.43;6.18;;;;;;;;;;6249897;28;20447;-71
2021/03/06 17:50:52;;;;;;;9.48;5.57;;;;;;;;;;6251822;28;20049;-70
2021/03/06 17:53:53;;;;;;;11.93;6.28;;;;;;;;;;6250062;28;20100;-70
2021/03/06 17:56:56;;;;;;;10.65;6.53;;;;;;;;;;6256408;28;20068;-70
2021/03/06 17:59:57;;;;;;;9.60;6.10;;;;;;;;;;6249849;28;20132;-71
2021/03/06 18:02:58;;;;;;;11.32;6.35;;;;;;;;;;6265316;28;20079;-70